CYQX

Gander International Airport

Gander, Canada
TAF CYQX 231742Z 2318/2418 26012G22KT P6SM FEW030 FEW220 BECMG 2400/2402 25010KT FM241000 25010G20KT P6SM BKN180 BECMG 2413/2415 25015G30KT RMK NXT FCST BY 240000Z
Issued Valid From Valid To
Apr-23 @ 17:42 UTC
(5 hours ago)
Apr-23 @ 18:00 UTC
(5 hours ago)
Apr-24 @ 18:00 UTC
(in 19 hours)
Apr-23 @ 18:00 to Apr-24 @ 00:00
TAF CYQX 231742Z 2318/2418 26012G22KT P6SM FEW030 FEW220
Wind Visibility Clouds
260° at 12 knots
 Gusting to 22 knots
Greater than 6 miles
  • Few at 3,000' AGL
  • Few at 22,000' AGL
Becoming Apr-24 @ 00:00 to Apr-24 @ 10:00
BECMG 2400/2402 25010KT
Wind Visibility Clouds
250° at 10 knots Greater than 6 miles
  • Few at 3,000' AGL
  • Few at 22,000' AGL
From Apr-24 @ 10:00 to Apr-24 @ 13:00
FM241000 25010G20KT P6SM BKN180
Wind Visibility Clouds
250° at 10 knots
 Gusting to 20 knots
Greater than 6 miles
  • Broken at 18,000' AGL
Becoming Apr-24 @ 13:00 to Apr-24 @ 18:00
BECMG 2413/2415 25015G30KT RMK NXT FCST BY 240000Z
Wind Visibility Clouds
250° at 15 knots
 Gusting to 30 knots
Greater than 6 miles
  • Broken at 18,000' AGL
TAF CYQX 231742Z 2318/2418 26012G22KT P6SM FEW030 FEW220 BECMG 2400/2402 25010KT FM241000 25010G20KT P6SM BKN180 BECMG 2413/2415 25015G30KT RMK NXT FCST BY 240000Z
Issued Apr-23 @ 17:42 UTC
(5 hours ago)
Valid From Apr-23 @ 18:00 UTC
(5 hours ago)
Valid To Apr-24 @ 18:00 UTC
(in 19 hours)
Apr-23 @ 18:00 - Apr-24 @ 00:00
Wind Visibility
260° at 12 knots
 Gusting to 22 knots
Greater than 6 miles
Clouds
  • Few at 3,000' AGL
  • Few at 22,000' AGL
Becoming Apr-24 @ 00:00 - Apr-24 @ 10:00
Wind Visibility
250° at 10 knots Greater than 6 miles
Clouds
  • Few at 3,000' AGL
  • Few at 22,000' AGL
From Apr-24 @ 10:00 - Apr-24 @ 13:00
Wind Visibility
250° at 10 knots
 Gusting to 20 knots
Greater than 6 miles
Clouds
  • Broken at 18,000' AGL
Becoming Apr-24 @ 13:00 - Apr-24 @ 18:00
Wind Visibility
250° at 15 knots
 Gusting to 30 knots
Greater than 6 miles
Clouds
  • Broken at 18,000' AGL